createdAt,value
2018-07-16T00:02:18.455Z,24.20
2018-07-16T00:07:21.887Z,24.20
2018-07-16T00:12:25.210Z,24.20
2018-07-16T00:17:28.494Z,24.10
2018-07-16T00:22:31.908Z,24.10
2018-07-16T00:32:38.121Z,24.00
2018-07-16T00:37:41.346Z,24.00
2018-07-16T00:42:44.542Z,23.90
2018-07-16T00:47:47.750Z,23.90
2018-07-16T00:52:50.959Z,23.90
2018-07-16T00:57:54.134Z,23.80
2018-07-16T01:02:57.381Z,23.80
2018-07-16T01:08:00.587Z,23.60
2018-07-16T01:13:03.798Z,23.70
2018-07-16T01:18:07.006Z,23.60
2018-07-16T01:23:10.217Z,23.60
2018-07-16T01:28:13.372Z,23.60
2018-07-16T01:33:16.636Z,23.40
2018-07-16T01:38:19.946Z,23.50
2018-07-16T01:43:23.155Z,23.50
2018-07-16T01:48:26.365Z,23.40
2018-07-16T01:53:29.527Z,23.40
2018-07-16T01:58:32.784Z,23.40
2018-07-16T02:03:35.935Z,23.30
2018-07-16T02:08:39.100Z,23.00
2018-07-16T02:13:42.352Z,23.30
2018-07-16T02:18:45.622Z,23.40
2018-07-16T02:23:48.833Z,23.00
2018-07-16T02:28:52.041Z,23.20
2018-07-16T02:33:55.253Z,23.20
2018-07-16T02:38:58.562Z,23.20
2018-07-16T02:44:01.775Z,23.10
2018-07-16T02:49:05.192Z,23.10
2018-07-16T02:54:08.498Z,23.00
2018-07-16T02:59:12.019Z,23.00
2018-07-16T03:04:15.224Z,22.90
2018-07-16T03:09:18.395Z,23.00
2018-07-16T03:14:21.808Z,22.90
2018-07-16T03:19:25.059Z,22.70
2018-07-16T03:24:28.270Z,22.80
2018-07-16T03:29:31.721Z,23.10
2018-07-16T03:34:34.889Z,22.80
2018-07-16T03:39:38.099Z,22.80
2018-07-16T03:44:41.411Z,22.60
2018-07-16T03:49:44.622Z,22.70
2018-07-16T03:54:47.836Z,22.80
2018-07-16T03:59:51.144Z,22.60
2018-07-16T04:04:54.351Z,22.60
2018-07-16T04:09:57.666Z,22.50
2018-07-16T04:15:00.871Z,22.10
2018-07-16T04:20:04.194Z,22.60
2018-07-16T04:25:07.496Z,22.50
2018-07-16T04:30:10.808Z,22.40
2018-07-16T04:35:14.123Z,22.40
2018-07-16T04:40:17.432Z,22.50
2018-07-16T04:45:20.744Z,22.20
2018-07-16T04:50:23.973Z,22.10
2018-07-16T04:55:27.264Z,22.40
2018-07-16T05:00:30.472Z,22.50
2018-07-16T05:05:33.787Z,22.40
2018-07-16T05:10:37.097Z,22.30
2018-07-16T05:15:40.409Z,22.20
2018-07-16T05:20:43.611Z,22.40
2018-07-16T05:25:46.930Z,22.30
2018-07-16T05:30:50.139Z,22.20
2018-07-16T05:35:53.452Z,22.40
2018-07-16T05:40:56.763Z,22.40
2018-07-16T05:46:00.075Z,22.50
2018-07-16T05:51:03.387Z,22.40
2018-07-16T05:56:06.699Z,22.20
2018-07-16T06:01:10.012Z,22.20
2018-07-16T06:06:14.026Z,22.50
2018-07-16T06:11:17.248Z,22.50
2018-07-16T06:16:20.666Z,22.60
2018-07-16T06:21:23.976Z,22.50
2018-07-16T06:26:27.291Z,22.70
2018-07-16T06:31:30.499Z,22.60
2018-07-16T06:36:33.708Z,22.70
2018-07-16T06:41:37.197Z,22.80
2018-07-16T06:46:40.126Z,22.70
2018-07-16T06:51:43.271Z,22.90
2018-07-16T06:56:46.432Z,22.80
2018-07-16T07:01:49.655Z,23.20
2018-07-16T07:06:52.864Z,22.80
2018-07-16T07:11:56.024Z,23.10
2018-07-16T07:16:59.386Z,23.00
2018-07-16T07:22:02.595Z,23.00
2018-07-16T07:27:05.806Z,22.90
2018-07-16T07:32:09.014Z,23.20
2018-07-16T07:37:12.224Z,23.50
2018-07-16T07:42:15.364Z,23.40
2018-07-16T07:47:18.746Z,23.60
2018-07-16T07:52:22.057Z,23.70
2018-07-16T07:57:25.370Z,23.80
2018-07-16T08:02:28.680Z,23.90
2018-07-16T08:07:31.890Z,24.00
2018-07-16T08:12:35.113Z,24.10
2018-07-16T08:17:38.346Z,24.20
2018-07-16T08:22:41.621Z,24.20
2018-07-16T08:27:44.932Z,24.40
2018-07-16T08:32:48.244Z,24.40
2018-07-16T08:37:51.555Z,24.50
2018-07-16T08:42:54.784Z,24.60
2018-07-16T08:47:58.077Z,24.80
2018-07-16T08:53:01.403Z,24.90
2018-07-16T08:58:04.704Z,24.90
2018-07-16T09:03:07.927Z,25.10
2018-07-16T09:08:11.227Z,25.20
2018-07-16T09:13:14.516Z,25.20
2018-07-16T09:18:17.661Z,25.30
2018-07-16T09:23:20.911Z,25.40
2018-07-16T09:28:24.173Z,25.50
2018-07-16T09:33:27.387Z,25.60
2018-07-16T09:38:30.609Z,25.80
2018-07-16T09:43:33.828Z,25.80
2018-07-16T09:48:37.028Z,26.00
2018-07-16T09:53:40.247Z,26.10
2018-07-16T10:03:47.910Z,26.30
2018-07-16T10:08:51.120Z,26.40
2018-07-16T10:13:54.343Z,26.50
2018-07-16T10:18:57.547Z,26.60
2018-07-16T10:24:00.782Z,26.80
2018-07-16T10:29:04.135Z,26.90
2018-07-16T10:39:10.358Z,27.00
2018-07-16T10:44:13.588Z,27.10
2018-07-16T10:49:16.798Z,27.20
2018-07-16T10:54:20.032Z,27.30
2018-07-16T10:59:23.239Z,27.40
2018-07-16T11:04:26.492Z,27.50
2018-07-16T11:09:29.675Z,27.60
2018-07-16T11:14:32.927Z,27.70
2018-07-16T11:19:36.082Z,27.80
2018-07-16T11:24:39.451Z,27.90
2018-07-16T11:29:42.604Z,28.00
2018-07-16T11:34:45.766Z,28.10
2018-07-16T11:39:48.911Z,28.20
2018-07-16T11:44:52.087Z,28.30
2018-07-16T11:49:55.244Z,28.40
2018-07-16T11:54:58.391Z,28.50
2018-07-16T12:00:01.538Z,28.50
2018-07-16T12:05:04.746Z,28.60
2018-07-16T12:10:07.955Z,28.60
2018-07-16T12:15:11.163Z,28.70
2018-07-16T12:20:14.375Z,28.70
2018-07-16T12:25:17.583Z,28.80
2018-07-16T12:30:20.806Z,28.80
2018-07-16T12:35:24.023Z,28.90
2018-07-16T12:40:27.236Z,28.90
2018-07-16T12:45:30.449Z,29.00
2018-07-16T12:50:33.663Z,29.00
2018-07-16T12:55:36.946Z,29.10
2018-07-16T13:00:40.099Z,29.10
2018-07-16T13:05:43.302Z,29.10
2018-07-16T13:10:46.476Z,29.10
2018-07-16T13:15:49.721Z,29.10
2018-07-16T13:20:52.804Z,29.10
2018-07-16T13:25:55.952Z,29.10
2018-07-16T13:30:59.144Z,29.10
2018-07-16T13:36:02.294Z,29.20
2018-07-16T13:41:05.479Z,29.20
2018-07-16T13:46:08.647Z,29.20
2018-07-16T13:51:11.799Z,29.20
2018-07-16T13:56:14.964Z,29.20
2018-07-16T14:01:18.114Z,29.30
2018-07-16T14:06:21.278Z,29.30
2018-07-16T14:11:24.442Z,29.30
2018-07-16T14:16:27.596Z,29.30
2018-07-16T14:21:30.750Z,29.40
2018-07-16T14:26:33.910Z,29.40
2018-07-16T14:31:37.058Z,29.30
2018-07-16T14:36:40.236Z,29.40
2018-07-16T14:41:43.388Z,29.40
2018-07-16T14:46:46.541Z,29.40
2018-07-16T14:51:49.694Z,29.40
2018-07-16T14:56:52.847Z,29.40
2018-07-16T15:01:55.994Z,29.40
2018-07-16T15:06:59.143Z,29.40
2018-07-16T15:12:02.315Z,29.40
2018-07-16T15:17:05.472Z,29.50
2018-07-16T15:22:08.624Z,29.50
2018-07-16T15:27:11.767Z,29.50
2018-07-16T15:32:15.019Z,29.50
2018-07-16T15:37:18.172Z,29.50
2018-07-16T15:42:21.356Z,29.60
2018-07-16T15:47:24.511Z,29.50
2018-07-16T15:52:27.660Z,29.50
2018-07-16T15:57:30.820Z,29.50
2018-07-16T16:02:33.967Z,29.50
2018-07-16T16:07:37.119Z,29.50
2018-07-16T16:12:40.348Z,29.50
2018-07-16T16:17:43.564Z,29.50
2018-07-16T16:22:46.776Z,29.50
2018-07-16T16:27:49.983Z,29.60
2018-07-16T16:32:53.233Z,29.50
2018-07-16T16:37:56.408Z,29.50
2018-07-16T16:42:59.631Z,29.50
2018-07-16T16:48:02.980Z,29.50
2018-07-16T16:53:06.212Z,29.50
2018-07-16T16:58:09.427Z,29.50
2018-07-16T17:03:12.635Z,29.50
2018-07-16T17:08:15.857Z,29.50
2018-07-16T17:13:19.138Z,29.40
2018-07-16T17:18:22.335Z,29.40
2018-07-16T17:23:25.575Z,29.40
2018-07-16T17:28:28.702Z,29.30
2018-07-16T17:33:31.970Z,29.30
2018-07-16T17:38:35.118Z,29.30
2018-07-16T17:43:38.267Z,29.30
2018-07-16T17:48:41.423Z,29.30
2018-07-16T17:53:44.571Z,29.30
2018-07-16T17:58:47.769Z,29.30
2018-07-16T18:03:50.888Z,29.30
2018-07-16T18:08:54.035Z,29.20
2018-07-16T18:13:57.259Z,29.20
2018-07-16T18:19:00.468Z,29.20
2018-07-16T18:24:03.680Z,29.20
2018-07-16T18:29:06.893Z,29.10
2018-07-16T18:34:10.103Z,29.10
2018-07-16T18:39:13.324Z,29.00
2018-07-16T18:44:16.531Z,29.00
2018-07-16T18:49:19.787Z,28.90
2018-07-16T18:54:23.035Z,28.90
2018-07-16T18:59:26.258Z,28.80
2018-07-16T19:04:29.460Z,28.80
2018-07-16T19:09:33.316Z,28.70
2018-07-16T19:14:36.571Z,28.60
2018-07-16T19:19:39.766Z,28.60
2018-07-16T19:24:43.242Z,28.50
2018-07-16T19:29:47.107Z,28.50
2018-07-16T19:34:51.422Z,28.40
2018-07-16T19:39:54.850Z,28.40
2018-07-16T19:44:58.544Z,28.30
2018-07-16T19:50:01.719Z,28.20
2018-07-16T19:55:05.322Z,28.20
2018-07-16T20:00:08.527Z,28.10
2018-07-16T20:05:11.740Z,28.00
2018-07-16T20:10:14.918Z,28.00
2018-07-16T20:15:18.993Z,27.90
2018-07-16T20:20:22.137Z,27.90
2018-07-16T20:25:25.268Z,27.90
2018-07-16T20:30:28.424Z,27.80
2018-07-16T20:35:31.589Z,27.70
2018-07-16T20:40:34.748Z,27.70
2018-07-16T20:45:37.999Z,27.60
2018-07-16T20:50:41.155Z,27.60
2018-07-16T20:55:44.303Z,27.50
2018-07-16T21:00:47.462Z,27.50
2018-07-16T21:05:50.635Z,27.40
2018-07-16T21:10:53.884Z,27.30
2018-07-16T21:15:57.110Z,27.30
2018-07-16T21:21:00.323Z,27.30
2018-07-16T21:26:03.538Z,27.20
2018-07-16T21:31:07.200Z,27.10
2018-07-16T21:36:10.423Z,27.10
2018-07-16T21:41:13.636Z,27.10
2018-07-16T21:46:16.811Z,27.00
2018-07-16T21:51:19.963Z,26.90
2018-07-16T21:56:23.111Z,26.90
2018-07-16T22:01:26.271Z,26.80
2018-07-16T22:06:29.423Z,26.80
2018-07-16T22:11:32.596Z,26.70
2018-07-16T22:16:35.756Z,26.60
2018-07-16T22:21:38.920Z,26.60
2018-07-16T22:26:42.075Z,26.60
2018-07-16T22:31:45.237Z,26.50
2018-07-16T22:36:48.391Z,26.50
2018-07-16T22:41:51.547Z,26.40
2018-07-16T22:46:54.703Z,26.40
2018-07-16T22:51:57.858Z,26.30
2018-07-16T22:57:01.017Z,26.30
2018-07-16T23:02:04.171Z,26.20
2018-07-16T23:07:07.695Z,26.20
2018-07-16T23:12:10.864Z,26.10
2018-07-16T23:17:14.015Z,26.00
2018-07-16T23:22:17.179Z,26.00
2018-07-16T23:27:20.333Z,26.00
2018-07-16T23:32:23.480Z,25.90
2018-07-16T23:37:26.644Z,25.80
2018-07-16T23:42:29.795Z,25.80
2018-07-16T23:47:32.947Z,25.80
2018-07-16T23:52:36.111Z,25.80
2018-07-16T23:57:39.263Z,25.70
